Time;durP1;ratioP1;P1;durP2;ratioP2;P2;SDS_P1;SDS_P2;PMS_P1;PMS_P2;Temp;Humidity;BMP_temperature;BMP_pressure;BME280_temperature;BME280_humidity;BME280_pressure;Samples;Min_cycle;Max_cycle;Signal;HPM_P1;HPM_P2
2021/01/15 00:01:20;;;;;;;10.57;5.90;;;;;;;1.18;81.86;101621.16;5000519;28;62489;-64
2021/01/15 00:03:47;;;;;;;9.18;5.75;;;;;;;1.19;82.26;101628.91;5008504;28;62823;-66
2021/01/15 00:06:25;;;;;;;12.25;6.22;;;;;;;1.20;81.72;101625.34;5007168;28;63192;-65
2021/01/15 00:08:53;;;;;;;10.85;5.97;;;;;;;1.17;81.83;101629.91;4984948;28;62641;-64
2021/01/15 00:11:31;;;;;;;11.57;5.78;;;;;;;1.15;81.87;101627.41;5008780;28;62687;-64
2021/01/15 00:13:59;;;;;;;9.27;5.57;;;;;;;1.17;82.02;101622.06;5009762;28;64172;-65
2021/01/15 00:16:28;;;;;;;13.73;7.00;;;;;;;1.15;81.80;101631.81;5004094;28;64050;-64
2021/01/15 00:18:57;;;;;;;14.48;6.53;;;;;;;1.12;82.20;101627.59;4995411;28;62642;-65
2021/01/15 00:21:26;;;;;;;12.30;5.82;;;;;;;1.12;82.12;101632.81;4989328;28;62716;-66
2021/01/15 00:23:55;;;;;;;13.75;6.45;;;;;;;1.05;82.22;101628.88;5010074;28;62748;-65
2021/01/15 00:26:24;;;;;;;14.68;6.72;;;;;;;1.04;82.24;101632.41;5002750;28;62902;-64
2021/01/15 00:28:51;;;;;;;12.50;6.15;;;;;;;1.03;82.51;101630.75;5002760;28;62726;-65
2021/01/15 00:31:18;;;;;;;15.93;5.97;;;;;;;1.01;82.70;101627.38;5009778;28;62614;-67
2021/01/15 00:33:45;;;;;;;14.52;6.88;;;;;;;1.06;82.57;101620.09;4990093;28;63653;-67
2021/01/15 00:36:12;;;;;;;7.85;4.97;;;;;;;1.03;82.31;101630.75;4999798;28;64723;-66
2021/01/15 00:38:38;;;;;;;8.35;4.38;;;;;;;1.02;82.50;101629.91;4981465;28;62984;-65
2021/01/15 00:41:07;;;;;;;9.32;4.85;;;;;;;1.04;81.93;101624.56;5014438;28;64203;-66
2021/01/15 00:43:35;;;;;;;10.20;5.82;;;;;;;1.01;81.85;101622.16;4989655;28;63031;-67
2021/01/15 00:46:01;;;;;;;9.52;4.88;;;;;;;0.98;82.08;101617.97;5003127;28;63766;-65
2021/01/15 00:48:28;;;;;;;7.10;4.47;;;;;;;0.98;81.97;101627.56;4995566;28;62568;-65
2021/01/15 00:50:55;;;;;;;9.65;5.55;;;;;;;1.00;82.29;101625.72;5003777;28;62602;-67
2021/01/15 00:53:21;;;;;;;10.45;5.72;;;;;;;0.94;82.67;101618.22;5001157;28;63242;-65
2021/01/15 00:55:49;;;;;;;11.90;6.38;;;;;;;0.93;82.91;101619.16;4995967;28;63697;-64
2021/01/15 00:58:15;;;;;;;9.23;5.32;;;;;;;0.94;82.43;101626.06;4999382;28;62520;-67
2021/01/15 01:00:41;;;;;;;10.63;5.15;;;;;;;0.88;82.73;101621.19;5002290;28;62483;-67
2021/01/15 01:03:07;;;;;;;12.05;5.18;;;;;;;0.92;82.73;101626.16;4999456;28;63475;-66
2021/01/15 01:05:34;;;;;;;11.55;5.43;;;;;;;0.92;82.99;101625.31;5010278;28;64743;-66
2021/01/15 01:08:00;;;;;;;13.32;5.57;;;;;;;0.93;82.15;101629.59;4986688;28;62919;-64
2021/01/15 01:10:27;;;;;;;9.85;5.90;;;;;;;0.87;82.71;101619.50;5011815;28;62541;-67
2021/01/15 01:12:53;;;;;;;8.82;4.93;;;;;;;0.91;82.50;101639.28;5007774;28;62872;-65
2021/01/15 01:15:19;;;;;;;9.30;5.15;;;;;;;0.87;82.77;101630.81;5011052;28;63667;-64
2021/01/15 01:17:45;;;;;;;9.35;5.05;;;;;;;0.84;83.08;101632.75;4997728;28;62682;-67
2021/01/15 01:20:12;;;;;;;11.23;4.68;;;;;;;0.81;82.49;101628.56;5008468;28;62702;-67
2021/01/15 01:22:39;;;;;;;6.93;3.50;;;;;;;0.77;83.24;101640.94;4991220;28;63091;-64
2021/01/15 01:25:07;;;;;;;8.27;4.25;;;;;;;0.82;82.60;101632.84;5003470;28;64659;-65
2021/01/15 01:27:33;;;;;;;9.40;4.45;;;;;;;0.81;83.20;101634.63;4989554;28;62896;-65
2021/01/15 01:30:00;;;;;;;6.30;3.45;;;;;;;0.77;82.68;101637.50;5001757;28;62942;-65
2021/01/15 01:32:27;;;;;;;9.55;5.40;;;;;;;0.82;83.09;101638.06;5010054;28;62978;-65
2021/01/15 01:34:53;;;;;;;8.52;4.70;;;;;;;0.78;82.67;101640.00;4981856;28;63756;-65
2021/01/15 01:37:19;;;;;;;12.05;5.68;;;;;;;0.77;83.59;101634.88;5001383;28;62706;-65
2021/01/15 01:39:47;;;;;;;10.48;5.07;;;;;;;0.73;83.38;101638.59;5006949;28;62794;-66
2021/01/15 01:42:13;;;;;;;8.52;4.78;;;;;;;0.77;83.07;101634.88;4992597;28;62671;-64
2021/01/15 01:44:40;;;;;;;8.02;4.15;;;;;;;0.75;83.72;101627.13;4980296;28;63654;-65
2021/01/15 01:47:07;;;;;;;7.32;4.07;;;;;;;0.72;83.51;101632.53;5010711;28;62671;-64
2021/01/15 01:49:35;;;;;;;7.03;4.75;;;;;;;0.74;83.14;101635.88;5005871;28;62954;-65
2021/01/15 01:52:04;;;;;;;8.95;5.38;;;;;;;0.74;83.01;101641.09;4999712;28;62884;-65
2021/01/15 01:54:35;;;;;;;9.30;4.35;;;;;;;0.71;83.40;101651.72;4999243;28;64014;-64
2021/01/15 01:57:07;;;;;;;9.43;5.18;;;;;;;0.72;83.47;101644.75;5006321;28;62707;-64
2021/01/15 01:59:36;;;;;;;11.00;5.35;;;;;;;0.63;83.48;101640.88;5004443;28;62582;-64
2021/01/15 02:02:02;;;;;;;7.82;3.60;;;;;;;0.69;83.69;101648.38;5005877;28;63307;-64
2021/01/15 02:04:32;;;;;;;10.13;3.65;;;;;;;0.70;82.92;101650.06;5006937;28;64096;-67
2021/01/15 02:06:58;;;;;;;5.38;3.10;;;;;;;0.63;82.78;101656.56;5013900;28;62489;-66
2021/01/15 02:09:39;;;;;;;9.27;4.88;;;;;;;0.60;83.76;101660.19;5002688;28;62711;-65
2021/01/15 02:12:37;;;;;;;9.07;4.50;;;;;;;0.60;83.27;101654.97;5012834;28;62747;-67
2021/01/15 02:15:06;;;;;;;5.78;3.10;;;;;;;0.52;83.42;101645.88;5006163;28;63358;-66
2021/01/15 02:17:35;;;;;;;5.15;2.65;;;;;;;0.60;83.08;101659.34;5010452;28;62393;-65
2021/01/15 02:20:20;;;;;;;8.82;3.97;;;;;;;0.63;83.34;101666.16;5004980;28;62556;-65
2021/01/15 02:23:18;;;;;;;6.47;4.37;;;;;;;0.57;83.74;101675.16;4997749;28;62416;-67
2021/01/15 02:26:12;;;;;;;7.15;3.75;;;;;;;0.57;83.61;101676.03;4981683;28;64915;-66
2021/01/15 02:29:03;;;;;;;6.82;3.65;;;;;;;0.61;83.98;101674.06;4993474;28;62253;-66
2021/01/15 02:32:10;;;;;;;11.00;4.57;;;;;;;0.39;84.07;101662.22;5009967;28;62822;-66
2021/01/15 02:35:10;;;;;;;9.00;4.68;;;;;;;0.55;83.93;101677.03;4994003;28;62484;-65
2021/01/15 02:38:07;;;;;;;9.95;4.75;;;;;;;0.58;83.59;101674.25;5002432;28;63684;-66
2021/01/15 02:40:49;;;;;;;5.95;3.42;;;;;;;0.53;83.88;101674.53;4983529;28;62659;-66
2021/01/15 02:43:17;;;;;;;9.50;4.18;;;;;;;0.52;83.82;101685.03;4998653;28;63335;-68
2021/01/15 02:45:44;;;;;;;6.60;3.97;;;;;;;0.52;83.19;101679.81;5002336;28;62718;-65
2021/01/15 02:48:15;;;;;;;7.15;3.65;;;;;;;0.45;83.85;101670.63;5006107;28;64680;-65
2021/01/15 02:50:46;;;;;;;9.20;3.92;;;;;;;0.39;84.26;101680.50;5007765;28;64582;-66
2021/01/15 02:53:15;;;;;;;11.20;5.30;;;;;;;0.51;83.62;101681.59;5003683;28;62529;-67
2021/01/15 02:55:43;;;;;;;10.82;4.78;;;;;;;0.52;84.14;101677.22;4991827;28;62980;-66
2021/01/15 02:58:11;;;;;;;9.02;4.70;;;;;;;0.58;83.40;101682.09;5000374;28;63375;-67
2021/01/15 03:00:37;;;;;;;7.63;4.20;;;;;;;0.57;83.23;101681.25;5004048;28;62625;-67
2021/01/15 03:03:32;;;;;;;7.25;4.25;;;;;;;0.62;82.66;101688.81;5006618;28;62684;-66
2021/01/15 03:06:32;;;;;;;10.00;4.63;;;;;;;0.65;82.64;101685.19;5007798;28;62835;-66
2021/01/15 03:09:01;;;;;;;10.85;5.20;;;;;;;0.72;82.07;101691.75;5006241;28;64846;-68
2021/01/15 03:11:31;;;;;;;9.00;4.50;;;;;;;0.75;82.14;101695.03;4997258;28;62422;-67
2021/01/15 03:13:59;;;;;;;8.95;4.30;;;;;;;0.79;81.95;101686.09;5012153;28;62481;-66
2021/01/15 03:16:26;;;;;;;8.73;4.30;;;;;;;0.81;81.31;101694.69;5011268;28;62646;-65
2021/01/15 03:18:55;;;;;;;6.82;3.03;;;;;;;0.77;80.32;101692.34;5011771;28;64665;-65
2021/01/15 03:21:21;;;;;;;5.65;2.90;;;;;;;0.76;80.77;101695.88;5009209;28;62774;-67
2021/01/15 03:23:47;;;;;;;5.05;2.95;;;;;;;0.70;80.61;101689.25;5013954;28;62518;-66
2021/01/15 03:26:13;;;;;;;7.22;4.28;;;;;;;0.73;80.38;101702.13;5006813;28;62717;-68
2021/01/15 03:28:40;;;;;;;4.88;2.97;;;;;;;0.69;80.32;101695.38;5006506;28;62641;-66
2021/01/15 03:31:06;;;;;;;7.25;3.97;;;;;;;0.74;80.43;101695.94;5008843;28;62692;-66
2021/01/15 03:33:33;;;;;;;8.63;4.00;;;;;;;0.74;79.77;101703.78;5001887;28;62677;-66
2021/01/15 03:35:59;;;;;;;10.73;4.20;;;;;;;0.75;79.63;101705.47;5006843;28;62593;-67
2021/01/15 03:38:25;;;;;;;6.45;3.80;;;;;;;0.74;79.51;101713.41;5009175;28;63662;-65
2021/01/15 03:40:54;;;;;;;4.03;2.42;;;;;;;0.68;79.40;101713.72;4989653;28;63091;-68
2021/01/15 03:43:22;;;;;;;10.40;4.47;;;;;;;0.70;79.78;101717.97;5012080;28;62614;-68
2021/01/15 03:45:50;;;;;;;5.80;3.47;;;;;;;0.68;79.52;101725.03;5004906;28;64137;-66
2021/01/15 03:48:18;;;;;;;8.13;4.13;;;;;;;0.75;79.84;101731.59;4994117;28;62816;-66
2021/01/15 03:50:44;;;;;;;7.05;3.90;;;;;;;0.72;79.80;101721.34;5001575;28;62741;-68
2021/01/15 03:53:14;;;;;;;3.25;1.88;;;;;;;0.66;79.90;101721.69;5006609;28;62657;-66
2021/01/15 03:55:41;;;;;;;6.35;3.40;;;;;;;0.71;80.02;101729.25;4999457;28;62586;-67
2021/01/15 03:58:07;;;;;;;7.18;3.78;;;;;;;0.76;79.53;101728.03;5008727;28;62886;-66
2021/01/15 04:00:33;;;;;;;6.53;3.45;;;;;;;0.76;79.04;101721.97;4983204;28;62417;-66
2021/01/15 04:03:04;;;;;;;8.75;4.30;;;;;;;0.72;79.18;101723.09;5006135;28;62565;-67
2021/01/15 04:05:30;;;;;;;8.45;3.75;;;;;;;0.74;79.38;101727.28;5005732;28;62838;-68
2021/01/15 04:07:57;;;;;;;6.47;3.33;;;;;;;0.72;79.55;101734.41;5007140;28;63705;-66
2021/01/15 04:10:24;;;;;;;6.22;3.40;;;;;;;0.69;79.66;101733.72;4988029;28;62706;-67
2021/01/15 04:12:50;;;;;;;6.55;3.28;;;;;;;0.69;79.89;101731.94;5006152;28;62626;-67
2021/01/15 04:15:17;;;;;;;7.90;3.58;;;;;;;0.74;79.76;101737.72;5000087;28;63317;-65
2021/01/15 04:17:44;;;;;;;10.13;3.95;;;;;;;0.75;80.00;101738.59;5013234;28;62594;-66
2021/01/15 04:20:14;;;;;;;9.05;3.47;;;;;;;0.73;79.63;101730.84;4996644;28;62855;-68
2021/01/15 04:22:45;;;;;;;7.13;3.78;;;;;;;0.76;79.74;101735.03;4986904;28;62907;-66
2021/01/15 04:25:12;;;;;;;7.10;3.88;;;;;;;0.80;79.92;101740.00;5006406;28;62472;-66
2021/01/15 04:27:39;;;;;;;7.38;3.33;;;;;;;0.80;79.64;101747.84;5009536;28;63620;-65
2021/01/15 04:30:09;;;;;;;8.52;3.55;;;;;;;0.72;79.50;101736.13;4973206;28;63173;-66
2021/01/15 04:32:43;;;;;;;7.85;3.63;;;;;;;0.70;79.75;101738.00;5004029;28;62239;-66
2021/01/15 04:35:10;;;;;;;7.88;3.60;;;;;;;0.71;79.52;101743.13;5002915;28;62838;-66
2021/01/15 04:37:36;;;;;;;7.60;3.60;;;;;;;0.75;79.42;101741.22;5008021;28;64815;-66
2021/01/15 04:40:03;;;;;;;6.22;3.38;;;;;;;0.68;79.49;101745.94;4999188;28;62717;-66
2021/01/15 04:42:32;;;;;;;6.15;3.38;;;;;;;0.74;79.47;101744.72;5010814;28;62424;-65
2021/01/15 04:44:59;;;;;;;8.18;3.88;;;;;;;0.69;79.26;101750.22;5006445;28;62857;-66
2021/01/15 04:47:29;;;;;;;7.45;3.55;;;;;;;0.73;79.79;101754.34;4984302;28;63617;-65
2021/01/15 04:49:56;;;;;;;6.75;3.10;;;;;;;0.76;79.38;101746.31;4990178;28;63450;-65
2021/01/15 04:52:23;;;;;;;7.35;3.28;;;;;;;0.73;79.21;101745.69;5002596;28;63616;-66
2021/01/15 04:54:57;;;;;;;7.15;3.75;;;;;;;0.77;79.45;101748.03;5002335;28;62323;-67
2021/01/15 04:57:25;;;;;;;7.82;3.80;;;;;;;0.76;79.19;101740.28;4999473;28;63671;-67
2021/01/15 04:59:54;;;;;;;6.28;3.00;;;;;;;0.74;79.19;101744.72;5001116;28;62702;-68
2021/01/15 05:02:20;;;;;;;6.70;3.47;;;;;;;0.76;79.70;101756.78;5004642;28;62796;-67
2021/01/15 05:04:47;;;;;;;7.93;3.88;;;;;;;0.74;79.61;101757.78;4993305;28;62502;-66
2021/01/15 05:07:13;;;;;;;8.25;3.80;;;;;;;0.71;79.43;101761.41;4998200;28;63509;-68
2021/01/15 05:09:44;;;;;;;8.32;3.55;;;;;;;0.72;78.66;101760.50;5011654;28;62470;-65
2021/01/15 05:12:16;;;;;;;7.50;3.72;;;;;;;0.77;78.99;101750.63;5004306;28;61906;-66
2021/01/15 05:14:43;;;;;;;9.18;3.72;;;;;;;0.73;78.73;101759.56;4979850;28;62868;-68
2021/01/15 05:17:10;;;;;;;7.93;4.07;;;;;;;0.74;78.96;101756.00;4995842;28;64691;-67
2021/01/15 05:19:41;;;;;;;9.68;3.63;;;;;;;0.80;79.43;101755.69;5001714;28;62805;-65
2021/01/15 05:22:09;;;;;;;10.00;3.78;;;;;;;0.80;78.45;101760.06;4985063;28;62695;-66
2021/01/15 05:24:36;;;;;;;9.10;3.92;;;;;;;0.84;79.24;101768.59;4994300;28;62975;-66
2021/01/15 05:30:23;;;;;;;8.35;4.70;;;;;;;0.90;78.52;101776.91;5000619;28;62456;-65
2021/01/15 05:32:51;;;;;;;7.50;3.13;;;;;;;0.86;78.54;101780.63;4998144;28;62474;-66
2021/01/15 05:35:18;;;;;;;9.05;4.57;;;;;;;0.80;78.64;101773.13;5008264;28;62512;-67
2021/01/15 05:37:56;;;;;;;8.20;3.95;;;;;;;0.90;78.30;101776.09;5005216;28;63930;-69
2021/01/15 05:40:42;;;;;;;8.32;4.43;;;;;;;0.85;78.06;101783.31;5004355;28;62417;-69
2021/01/15 05:43:22;;;;;;;8.75;4.07;;;;;;;0.82;78.24;101779.94;5002605;28;62543;-67
2021/01/15 05:46:06;;;;;;;9.23;4.53;;;;;;;0.76;78.16;101790.72;4998342;28;62730;-65
2021/01/15 05:48:33;;;;;;;8.98;4.45;;;;;;;0.71;78.17;101786.69;5005243;28;63725;-65
2021/01/15 05:50:59;;;;;;;7.47;3.97;;;;;;;0.69;77.91;101792.00;4982940;28;62634;-65
2021/01/15 05:53:26;;;;;;;11.35;4.55;;;;;;;0.61;78.22;101796.78;4985529;28;62619;-67
2021/01/15 05:55:58;;;;;;;16.48;4.30;;;;;;;0.63;78.36;101799.31;5000474;28;62699;-67
2021/01/15 05:58:24;;;;;;;9.00;3.90;;;;;;;0.58;78.95;101799.59;5000877;28;62750;-67
2021/01/15 06:00:52;;;;;;;10.38;5.10;;;;;;;0.57;78.70;101800.50;5002768;28;62610;-67
2021/01/15 06:03:22;;;;;;;8.15;4.43;;;;;;;0.57;78.99;101810.94;5006808;28;62744;-68
2021/01/15 06:05:50;;;;;;;7.90;4.30;;;;;;;0.60;79.42;101803.78;4988195;28;62651;-66
2021/01/15 06:08:16;;;;;;;7.43;4.55;;;;;;;0.63;78.95;101812.38;4995872;28;62671;-65
2021/01/15 06:10:47;;;;;;;10.32;4.50;;;;;;;0.66;79.33;101807.84;4998657;28;62578;-66
2021/01/15 06:13:37;;;;;;;9.25;4.72;;;;;;;0.67;79.09;101814.75;5001905;28;62322;-67
2021/01/15 06:16:05;;;;;;;9.05;4.90;;;;;;;0.66;77.96;101807.84;4980568;28;64644;-67
2021/01/15 06:18:31;;;;;;;9.82;4.72;;;;;;;0.64;78.28;101804.47;5001128;28;63959;-65
2021/01/15 06:21:09;;;;;;;10.95;5.03;;;;;;;0.58;78.14;101791.75;5000592;28;62468;-65
2021/01/15 06:23:40;;;;;;;12.40;4.78;;;;;;;0.60;77.78;101802.97;4975898;28;62849;-65
2021/01/15 06:26:10;;;;;;;9.57;4.72;;;;;;;0.56;77.85;101804.03;5000797;28;62886;-67
2021/01/15 06:28:38;;;;;;;10.82;5.63;;;;;;;0.53;78.01;101798.97;4972662;28;62724;-67
2021/01/15 06:31:08;;;;;;;14.57;4.03;;;;;;;0.49;78.04;101807.88;4995905;28;62619;-67
2021/01/15 06:33:35;;;;;;;10.63;5.53;;;;;;;0.47;78.36;101812.34;4983461;28;62821;-64
2021/01/15 06:36:04;;;;;;;12.27;4.53;;;;;;;0.43;78.78;101814.31;4983595;28;62786;-64
2021/01/15 06:38:36;;;;;;;6.95;4.30;;;;;;;0.42;78.66;101817.00;4995980;28;63028;-65
2021/01/15 06:41:16;;;;;;;11.50;5.38;;;;;;;0.38;78.94;101822.38;4999725;28;62713;-65
2021/01/15 06:43:45;;;;;;;10.05;4.88;;;;;;;0.39;78.86;101821.44;5000244;28;62408;-65
2021/01/15 06:46:22;;;;;;;10.82;4.88;;;;;;;0.38;79.13;101822.38;4980838;28;62700;-65
2021/01/15 06:49:03;;;;;;;9.93;4.90;;;;;;;0.39;79.44;101824.06;4991673;28;64665;-65
2021/01/15 06:51:35;;;;;;;11.75;5.03;;;;;;;0.38;78.96;101822.38;4998559;28;62747;-66
2021/01/15 06:54:05;;;;;;;11.23;5.45;;;;;;;0.31;79.30;101822.78;4996867;28;62665;-65
2021/01/15 06:56:38;;;;;;;9.00;5.13;;;;;;;0.37;79.53;101831.13;5008770;28;62762;-66
2021/01/15 06:59:14;;;;;;;11.90;4.85;;;;;;;0.35;80.10;101837.34;4970203;28;64891;-66
2021/01/15 07:02:01;;;;;;;11.43;5.88;;;;;;;0.33;79.93;101834.81;4983592;28;62480;-65
2021/01/15 07:04:38;;;;;;;9.05;5.10;;;;;;;0.32;80.09;101833.16;4992576;28;62933;-68
2021/01/15 07:07:15;;;;;;;14.70;5.88;;;;;;;0.29;80.00;101833.28;4975847;28;62829;-67
2021/01/15 07:09:43;;;;;;;10.13;4.68;;;;;;;0.29;80.22;101828.06;4996555;28;63910;-67
2021/01/15 07:12:21;;;;;;;9.93;5.22;;;;;;;0.34;80.10;101833.91;4994486;28;62631;-67
2021/01/15 07:15:00;;;;;;;11.88;4.63;;;;;;;0.31;80.71;101826.22;4986340;28;63588;-67
2021/01/15 07:17:29;;;;;;;12.05;5.93;;;;;;;0.32;80.18;101833.16;4998478;28;62749;-69
2021/01/15 07:20:06;;;;;;;14.50;6.63;;;;;;;0.40;80.81;101845.78;5001059;28;64933;-66
2021/01/15 07:22:43;;;;;;;15.55;5.65;;;;;;;0.38;80.09;101838.03;4984906;28;62758;-66
2021/01/15 07:25:11;;;;;;;14.38;7.63;;;;;;;0.40;80.20;101859.69;4999285;28;62608;-66
2021/01/15 07:27:39;;;;;;;11.73;5.50;;;;;;;0.44;79.91;101862.13;4995681;28;63535;-66
2021/01/15 07:30:11;;;;;;;14.43;6.63;;;;;;;0.45;79.80;101855.97;4997062;28;62650;-67
2021/01/15 07:32:38;;;;;;;12.80;5.60;;;;;;;0.48;80.03;101858.44;4975325;28;63006;-67
2021/01/15 07:35:06;;;;;;;15.15;7.18;;;;;;;0.48;79.89;101863.66;4997362;28;62937;-70
2021/01/15 07:37:32;;;;;;;11.10;5.32;;;;;;;0.50;80.25;101873.09;4995409;28;63471;-70
2021/01/15 07:40:03;;;;;;;12.68;6.32;;;;;;;0.51;80.23;101873.94;4993252;28;62530;-70
2021/01/15 07:42:46;;;;;;;12.25;7.35;;;;;;;0.47;80.31;101862.81;4996408;28;62664;-68
2021/01/15 07:45:24;;;;;;;13.32;6.35;;;;;;;0.46;80.54;101875.94;4997150;28;62531;-71
2021/01/15 07:47:52;;;;;;;14.52;7.15;;;;;;;0.47;80.70;101872.41;5000556;28;62448;-69
2021/01/15 07:50:44;;;;;;;8.65;5.05;;;;;;;0.48;80.63;101876.72;4980768;28;62750;-69
2021/01/15 07:53:22;;;;;;;14.18;6.68;;;;;;;0.53;81.02;101882.53;4984362;28;62597;-71
2021/01/15 07:55:59;;;;;;;12.85;6.43;;;;;;;0.53;80.71;101877.28;4999931;28;62553;-69
2021/01/15 07:58:45;;;;;;;14.90;7.20;;;;;;;0.55;81.02;101883.28;4999953;28;62945;-69
2021/01/15 08:01:13;;;;;;;12.38;5.80;;;;;;;0.51;81.42;101882.63;4999233;28;62523;-72
2021/01/15 08:03:43;;;;;;;16.33;8.60;;;;;;;0.50;80.88;101886.13;4987099;28;62526;-68
2021/01/15 08:06:15;;;;;;;10.65;6.00;;;;;;;0.53;81.19;101887.75;4978353;28;62678;-72
2021/01/15 08:09:00;;;;;;;13.57;7.35;;;;;;;0.55;81.19;101891.13;4995254;28;62864;-69
2021/01/15 08:11:31;;;;;;;12.18;6.00;;;;;;;0.53;80.85;101883.38;4996259;28;63367;-70
2021/01/15 08:14:17;;;;;;;13.57;8.00;;;;;;;0.56;80.76;101898.88;4997233;28;63020;-66
2021/01/15 08:16:45;;;;;;;10.10;5.53;;;;;;;0.47;81.66;101888.94;4984839;28;62830;-67
2021/01/15 08:19:14;;;;;;;9.85;5.57;;;;;;;0.62;81.39;101905.56;4999609;28;62324;-70
2021/01/15 08:21:41;;;;;;;14.88;7.03;;;;;;;0.60;81.37;101905.63;5002664;28;65022;-70
2021/01/15 08:24:08;;;;;;;11.70;6.03;;;;;;;0.60;81.65;101905.63;4997664;28;62733;-68
2021/01/15 08:26:38;;;;;;;14.80;7.75;;;;;;;0.70;80.97;101907.75;4998802;28;62591;-67
2021/01/15 08:29:08;;;;;;;15.87;7.53;;;;;;;0.72;80.98;101905.91;4996021;28;63436;-70
2021/01/15 08:31:34;;;;;;;15.85;6.63;;;;;;;0.76;81.15;101905.66;5000187;28;63674;-67
2021/01/15 08:34:08;;;;;;;11.05;5.68;;;;;;;0.80;80.88;101912.41;4997697;28;62967;-67
2021/01/15 08:36:37;;;;;;;14.43;6.75;;;;;;;0.82;80.76;101913.16;4999741;28;63141;-67
2021/01/15 08:39:04;;;;;;;10.45;6.28;;;;;;;0.75;81.34;101913.59;4997086;28;62906;-67
2021/01/15 08:41:31;;;;;;;10.82;6.25;;;;;;;0.75;81.27;101914.41;4999503;28;63659;-69
2021/01/15 08:43:58;;;;;;;19.30;8.50;;;;;;;0.80;80.73;101916.78;4979243;28;62484;-70
2021/01/15 08:46:24;;;;;;;14.18;6.78;;;;;;;0.85;81.03;101917.41;5002448;28;62504;-71
2021/01/15 08:48:51;;;;;;;15.88;7.95;;;;;;;0.89;81.06;101925.91;4998579;28;62995;-68
2021/01/15 08:51:24;;;;;;;13.75;6.88;;;;;;;0.86;80.47;101923.47;4998919;28;64084;-70
2021/01/15 08:56:42;;;;;;;13.40;7.07;;;;;;;0.79;80.70;101923.78;5000600;28;62456;-71
2021/01/15 08:59:13;;;;;;;14.60;7.63;;;;;;;0.91;80.96;101940.56;4998981;28;62651;-68
2021/01/15 09:01:42;;;;;;;16.30;8.23;;;;;;;0.94;80.55;101936.97;4989253;28;65030;-67
2021/01/15 09:04:11;;;;;;;13.07;5.78;;;;;;;0.88;80.75;101945.97;4995608;28;62327;-67
2021/01/15 09:06:38;;;;;;;14.38;6.97;;;;;;;0.91;81.15;101951.00;4995953;28;62462;-67
2021/01/15 09:09:10;;;;;;;14.93;7.45;;;;;;;0.94;80.80;101944.81;4999942;28;62908;-71
2021/01/15 09:11:38;;;;;;;11.00;5.38;;;;;;;0.92;80.94;101944.03;4995497;28;64400;-67
2021/01/15 09:14:07;;;;;;;12.18;6.75;;;;;;;0.93;80.89;101958.78;5005434;28;62922;-67
2021/01/15 09:16:33;;;;;;;12.88;6.75;;;;;;;1.01;80.45;101967.06;4999300;28;62304;-70
2021/01/15 09:19:05;;;;;;;8.60;5.38;;;;;;;1.02;80.15;101966.16;4998028;28;62760;-67
2021/01/15 09:21:31;;;;;;;12.52;7.10;;;;;;;0.99;80.43;101966.28;4996509;28;64722;-68
2021/01/15 09:23:57;;;;;;;13.23;5.25;;;;;;;1.00;80.65;101976.66;5006323;28;62359;-70
2021/01/15 09:26:23;;;;;;;8.57;3.70;;;;;;;0.94;80.71;101974.38;5007283;28;62723;-67
2021/01/15 09:28:49;;;;;;;7.80;4.35;;;;;;;0.95;80.58;101967.38;5011545;28;62699;-71
2021/01/15 09:31:17;;;;;;;13.52;6.55;;;;;;;1.00;80.71;101973.22;5004580;28;63688;-68
2021/01/15 09:33:51;;;;;;;14.00;6.07;;;;;;;1.04;80.56;101969.50;5001685;28;62326;-67
2021/01/15 09:36:22;;;;;;;12.73;5.78;;;;;;;1.16;80.13;101987.13;4995852;28;62570;-70
2021/01/15 09:38:48;;;;;;;12.65;5.55;;;;;;;1.18;79.74;101974.81;5000432;28;62615;-68
2021/01/15 09:41:15;;;;;;;15.38;7.30;;;;;;;1.27;79.20;101977.88;4991237;28;64617;-68
2021/01/15 09:43:42;;;;;;;13.93;6.65;;;;;;;1.39;79.09;101987.69;4979159;28;62610;-67
2021/01/15 09:46:08;;;;;;;13.20;6.43;;;;;;;1.37;78.64;101976.47;5006329;28;62864;-68
2021/01/15 09:48:35;;;;;;;10.52;5.53;;;;;;;1.41;78.16;101983.22;5005372;28;63150;-71
2021/01/15 09:51:01;;;;;;;14.77;5.82;;;;;;;1.49;78.31;101981.03;5003680;28;63909;-67
2021/01/15 09:53:27;;;;;;;11.25;5.70;;;;;;;1.49;77.68;101988.00;5008481;28;62535;-68
2021/01/15 09:55:54;;;;;;;11.32;6.88;;;;;;;1.59;77.33;101983.97;5003821;28;63210;-72
2021/01/15 09:58:20;;;;;;;13.35;6.95;;;;;;;1.70;76.85;101988.59;4980176;28;62851;-68
2021/01/15 10:00:46;;;;;;;7.70;4.45;;;;;;;1.69;77.18;101984.31;4997977;28;63861;-71
2021/01/15 10:03:12;;;;;;;10.77;6.10;;;;;;;1.74;76.45;101990.09;5004848;28;62591;-70
2021/01/15 10:05:40;;;;;;;13.80;7.50;;;;;;;1.75;76.48;101994.44;4994878;28;62567;-69
2021/01/15 10:08:06;;;;;;;11.38;6.55;;;;;;;1.73;77.19;101991.06;5006449;28;62693;-70
2021/01/15 10:10:32;;;;;;;11.43;5.60;;;;;;;1.80;76.69;101993.22;5006224;28;63392;-69
2021/01/15 10:12:58;;;;;;;9.73;5.32;;;;;;;1.88;76.16;101998.03;4986783;28;62547;-69
2021/01/15 10:15:24;;;;;;;13.55;7.07;;;;;;;1.86;76.53;101991.19;5004129;28;62709;-70
2021/01/15 10:17:50;;;;;;;14.32;6.13;;;;;;;1.94;76.07;101992.47;5005552;28;62555;-68
2021/01/15 10:20:16;;;;;;;13.05;8.00;;;;;;;1.96;75.27;101993.22;5006446;28;65556;-70
2021/01/15 10:22:42;;;;;;;10.30;6.35;;;;;;;2.07;75.48;102000.44;5008198;28;62352;-68
2021/01/15 10:25:09;;;;;;;10.90;5.78;;;;;;;2.07;74.92;101991.75;5003808;28;63002;-67
2021/01/15 10:27:36;;;;;;;13.88;6.90;;;;;;;2.12;74.53;101997.56;4998646;28;62587;-68
2021/01/15 10:30:03;;;;;;;10.30;5.82;;;;;;;2.23;73.86;102000.41;4998745;28;63683;-67
2021/01/15 10:32:29;;;;;;;8.07;4.75;;;;;;;2.22;73.75;101989.09;4998793;28;62365;-71
2021/01/15 10:34:56;;;;;;;11.35;6.30;;;;;;;2.22;72.90;101991.72;4986210;28;62995;-67
2021/01/15 10:37:23;;;;;;;12.35;6.90;;;;;;;2.30;73.14;101986.03;5010142;28;62903;-67
2021/01/15 10:39:49;;;;;;;10.73;5.47;;;;;;;2.30;72.76;101993.91;4983044;28;62934;-67
2021/01/15 10:42:15;;;;;;;10.32;5.82;;;;;;;2.24;73.13;101999.47;4974858;28;62537;-67
2021/01/15 10:44:41;;;;;;;11.50;6.30;;;;;;;2.22;72.66;101988.25;4993629;28;62970;-67
2021/01/15 10:47:08;;;;;;;9.07;5.47;;;;;;;2.27;73.33;101991.44;4985195;28;62746;-70
2021/01/15 10:49:34;;;;;;;11.90;6.95;;;;;;;2.34;72.34;101992.78;5004862;28;64755;-68
2021/01/15 10:52:00;;;;;;;12.05;6.47;;;;;;;2.27;72.78;101986.19;5002338;28;62602;-67
2021/01/15 10:54:26;;;;;;;11.38;6.75;;;;;;;2.29;71.65;101991.34;5003463;28;62497;-69
2021/01/15 10:56:53;;;;;;;14.48;6.53;;;;;;;2.23;71.55;101987.31;5005993;28;62828;-70
2021/01/15 10:59:21;;;;;;;7.82;4.82;;;;;;;2.23;71.78;101989.94;5004184;28;65076;-68
2021/01/15 11:01:49;;;;;;;7.55;4.18;;;;;;;2.12;71.50;102002.81;4980177;28;63158;-67
2021/01/15 11:04:17;;;;;;;9.27;5.40;;;;;;;2.05;71.85;101997.06;5004006;28;62774;-70
2021/01/15 11:06:52;;;;;;;10.15;6.05;;;;;;;1.98;71.25;101996.59;5009192;28;63499;-70
2021/01/15 11:09:20;;;;;;;10.13;4.85;;;;;;;1.93;71.98;102001.22;5005516;28;63711;-67
2021/01/15 11:12:06;;;;;;;8.82;5.43;;;;;;;1.88;70.96;102000.66;4989281;28;62407;-70
2021/01/15 11:14:32;;;;;;;10.57;6.35;;;;;;;1.79;71.93;101996.78;5002526;28;62829;-67
2021/01/15 11:16:58;;;;;;;10.38;4.28;;;;;;;1.74;71.97;101993.59;5005343;28;62813;-68
2021/01/15 11:19:24;;;;;;;9.48;5.45;;;;;;;1.80;72.25;101997.63;5005752;28;63873;-69
2021/01/15 11:21:51;;;;;;;8.93;5.07;;;;;;;1.77;72.85;101997.81;5007313;28;62341;-68
2021/01/15 11:24:17;;;;;;;11.02;5.60;;;;;;;1.82;73.13;102001.81;5008383;28;62675;-70
2021/01/15 11:26:43;;;;;;;12.82;6.70;;;;;;;1.77;72.87;102008.25;5001689;28;62740;-70
2021/01/15 11:29:10;;;;;;;8.02;4.50;;;;;;;1.79;72.64;102001.19;5002259;28;62620;-71
2021/01/15 11:31:38;;;;;;;8.82;4.97;;;;;;;1.80;72.04;102002.84;4989315;28;64335;-69
2021/01/15 11:34:04;;;;;;;7.55;4.28;;;;;;;1.74;71.92;101995.34;5005441;28;62342;-68
2021/01/15 11:36:31;;;;;;;8.45;4.72;;;;;;;1.82;71.41;102003.59;5008977;28;62802;-68
2021/01/15 11:39:04;;;;;;;7.85;4.43;;;;;;;1.71;70.45;101991.13;4988400;28;64959;-68
2021/01/15 11:41:30;;;;;;;7.22;3.55;;;;;;;1.66;71.29;101997.53;4985305;28;63963;-70
2021/01/15 11:43:56;;;;;;;7.53;4.18;;;;;;;1.70;72.01;101994.69;5009726;28;62808;-70
2021/01/15 11:46:27;;;;;;;8.60;4.43;;;;;;;1.74;71.07;102000.56;4997076;28;62888;-68
2021/01/15 11:48:54;;;;;;;8.65;5.95;;;;;;;1.69;71.38;101994.75;4989455;28;62574;-68